createdAt,value
2022-09-03T00:00:04.396Z,52.03
2022-09-03T00:03:05.570Z,52.00
2022-09-03T00:05:42.627Z,52.03
2022-09-03T00:08:23.311Z,52.22
2022-09-03T00:11:00.512Z,52.25
2022-09-03T00:13:37.707Z,52.32
2022-09-03T00:16:14.132Z,52.16
2022-09-03T00:18:49.847Z,52.33
2022-09-03T00:21:39.920Z,52.29
2022-09-03T00:24:15.990Z,52.65
2022-09-03T00:26:54.654Z,52.55
2022-09-03T00:29:34.052Z,52.58
2022-09-03T00:32:14.102Z,52.68
2022-09-03T00:34:50.985Z,52.79
2022-09-03T00:37:21.281Z,52.67
2022-09-03T00:39:53.275Z,52.74
2022-09-03T00:42:43.535Z,52.86
2022-09-03T00:45:28.269Z,52.88
2022-09-03T00:48:12.779Z,52.95
2022-09-03T00:51:06.824Z,53.01
2022-09-03T00:53:51.499Z,53.00
2022-09-03T00:56:36.251Z,53.17
2022-09-03T00:59:23.064Z,53.20
2022-09-03T01:02:06.409Z,53.23
2022-09-03T01:04:53.416Z,53.27
2022-09-03T01:07:35.410Z,53.36
2022-09-03T01:10:17.823Z,53.65
2022-09-03T01:13:00.972Z,53.58
2022-09-03T01:15:42.678Z,53.64
2022-09-03T01:18:24.178Z,53.59
2022-09-03T01:21:14.198Z,53.62
2022-09-03T01:24:13.181Z,53.66
2022-09-03T01:27:01.275Z,53.67
2022-09-03T01:29:40.500Z,53.68
2022-09-03T01:32:18.181Z,53.66
2022-09-03T01:34:58.553Z,53.81
2022-09-03T01:37:43.125Z,53.99
2022-09-03T01:40:25.938Z,53.94
2022-09-03T01:43:12.733Z,54.08
2022-09-03T01:46:00.521Z,54.17
2022-09-03T01:48:44.698Z,54.45
2022-09-03T01:51:25.282Z,54.41
2022-09-03T01:54:18.008Z,54.33
2022-09-03T01:57:34.797Z,54.60
2022-09-03T02:00:10.402Z,54.78
2022-09-03T02:02:48.085Z,54.81
2022-09-03T02:05:22.945Z,54.88
2022-09-03T02:08:01.094Z,55.06
2022-09-03T02:10:39.551Z,55.09
2022-09-03T02:13:14.877Z,55.20
2022-09-03T02:15:50.726Z,55.16
2022-09-03T02:18:27.379Z,55.37
2022-09-03T02:21:01.732Z,55.32
2022-09-03T02:23:33.859Z,55.43
2022-09-03T02:26:08.123Z,55.54
2022-09-03T02:28:40.253Z,55.41
2022-09-03T02:31:12.313Z,55.48
2022-09-03T02:33:47.904Z,55.66
2022-09-03T02:36:27.653Z,55.61
2022-09-03T02:38:59.799Z,55.55
2022-09-03T02:41:31.932Z,55.56
2022-09-03T02:44:10.713Z,55.64
2022-09-03T02:46:45.533Z,55.61
2022-09-03T02:49:17.961Z,55.77
2022-09-03T02:51:50.212Z,55.68
2022-09-03T02:54:22.145Z,55.89
2022-09-03T02:56:54.724Z,55.80
2022-09-03T02:59:28.332Z,55.92
2022-09-03T03:02:01.233Z,55.99
2022-09-03T03:04:34.734Z,56.04
2022-09-03T03:07:06.925Z,56.00
2022-09-03T03:09:38.759Z,56.18
2022-09-03T03:12:11.047Z,56.30
2022-09-03T03:14:43.165Z,56.49
2022-09-03T03:17:15.308Z,56.53
2022-09-03T03:19:47.216Z,56.40
2022-09-03T03:22:19.241Z,56.48
2022-09-03T03:24:52.820Z,56.48
2022-09-03T03:27:25.092Z,56.58
2022-09-03T03:29:58.241Z,56.51
2022-09-03T03:32:30.869Z,56.51
2022-09-03T03:35:02.857Z,56.33
2022-09-03T03:37:35.705Z,56.42
2022-09-03T03:40:10.841Z,56.66
2022-09-03T03:42:43.470Z,56.69
2022-09-03T03:45:15.383Z,56.69
2022-09-03T03:47:47.275Z,56.64
2022-09-03T03:50:19.748Z,56.67
2022-09-03T03:52:52.252Z,56.67
2022-09-03T03:55:25.260Z,56.68
2022-09-03T03:57:59.899Z,56.60
2022-09-03T04:00:31.736Z,56.69
2022-09-03T04:03:03.652Z,56.65
2022-09-03T04:05:35.497Z,56.50
2022-09-03T04:08:08.153Z,56.82
2022-09-03T04:10:40.165Z,56.93
2022-09-03T04:13:12.172Z,57.00
2022-09-03T04:15:44.548Z,57.14
2022-09-03T04:18:16.425Z,57.16
2022-09-03T04:20:48.353Z,57.41
2022-09-03T04:23:20.451Z,57.45
2022-09-03T04:25:56.486Z,56.79
2022-09-03T04:28:28.837Z,56.26
2022-09-03T04:31:05.770Z,55.62
2022-09-03T04:33:40.109Z,54.66
2022-09-03T04:36:14.685Z,53.73
2022-09-03T04:38:48.145Z,52.99
2022-09-03T04:41:23.121Z,51.59
2022-09-03T04:43:57.026Z,50.68
2022-09-03T04:46:33.715Z,49.56
2022-09-03T04:49:07.310Z,48.08
2022-09-03T04:51:39.415Z,47.29
2022-09-03T04:54:12.091Z,46.47
2022-09-03T04:56:44.011Z,45.50
2022-09-03T04:59:15.927Z,44.62
2022-09-03T05:01:47.891Z,43.59
2022-09-03T05:04:20.367Z,42.66
2022-09-03T05:06:52.271Z,41.43
2022-09-03T05:09:24.367Z,40.33
2022-09-03T05:11:56.323Z,39.51
2022-09-03T05:14:28.259Z,38.82
2022-09-03T05:17:00.337Z,37.95
2022-09-03T05:19:32.640Z,36.74
2022-09-03T05:22:04.516Z,35.58
2022-09-03T05:24:36.328Z,34.66
2022-09-03T05:27:08.294Z,34.15
2022-09-03T05:29:40.241Z,33.15
2022-09-03T05:32:12.760Z,32.89
2022-09-03T05:34:44.631Z,32.39
2022-09-03T05:37:16.595Z,31.67
2022-09-03T05:39:48.561Z,30.98
2022-09-03T05:42:20.554Z,30.54
2022-09-03T05:44:52.731Z,29.94
2022-09-03T05:47:24.707Z,29.23
2022-09-03T05:49:57.163Z,29.12
2022-09-03T05:52:30.991Z,29.07
2022-09-03T05:55:03.400Z,28.68
2022-09-03T05:57:36.218Z,28.71
2022-09-03T06:00:12.037Z,28.52
2022-09-03T06:02:51.371Z,27.90
2022-09-03T06:05:23.350Z,27.07
2022-09-03T06:07:56.033Z,26.30
2022-09-03T06:10:34.459Z,25.79
2022-09-03T06:13:10.688Z,24.96
2022-09-03T06:15:42.599Z,24.05
2022-09-03T06:18:14.507Z,23.58
2022-09-03T06:20:54.718Z,22.77
2022-09-03T06:23:28.128Z,22.28
2022-09-03T06:26:08.572Z,21.53
2022-09-03T06:28:43.545Z,21.05
2022-09-03T06:31:17.229Z,20.69
2022-09-03T06:33:50.088Z,20.28
2022-09-03T06:36:23.817Z,19.89
2022-09-03T06:38:57.498Z,19.61
2022-09-03T06:41:32.641Z,19.59
2022-09-03T06:44:06.533Z,19.51
2022-09-03T06:46:42.355Z,19.07
2022-09-03T06:49:14.717Z,19.27
2022-09-03T06:51:46.594Z,19.14
2022-09-03T06:54:18.420Z,18.65
2022-09-03T06:56:50.477Z,18.70
2022-09-03T06:59:22.376Z,18.13
2022-09-03T07:01:55.410Z,17.99
2022-09-03T07:04:28.442Z,17.37
2022-09-03T07:07:01.139Z,17.39
2022-09-03T07:09:36.262Z,17.08
2022-09-03T07:12:11.130Z,16.85
2022-09-03T07:14:42.963Z,16.80
2022-09-03T07:17:15.046Z,16.31
2022-09-03T07:19:47.051Z,16.22
2022-09-03T07:22:18.902Z,16.06
2022-09-03T07:24:52.416Z,15.84
2022-09-03T07:27:24.585Z,15.78
2022-09-03T07:29:56.670Z,15.76
2022-09-03T07:32:32.419Z,15.80
2022-09-03T07:35:05.073Z,15.95
2022-09-03T07:37:38.596Z,15.69
2022-09-03T07:40:12.251Z,15.46
2022-09-03T07:42:44.157Z,15.52
2022-09-03T07:45:16.254Z,15.57
2022-09-03T07:47:52.036Z,15.63
2022-09-03T07:50:24.075Z,15.60
2022-09-03T07:53:00.475Z,15.23
2022-09-03T07:55:32.481Z,15.48
2022-09-03T07:58:07.462Z,15.19
2022-09-03T08:00:39.630Z,15.00
2022-09-03T08:03:13.312Z,14.68
2022-09-03T08:05:45.409Z,15.15
2022-09-03T08:08:18.001Z,15.26
2022-09-03T08:10:51.702Z,14.82
2022-09-03T08:13:23.569Z,14.96
2022-09-03T08:16:01.482Z,15.28
2022-09-03T08:18:37.763Z,14.78
2022-09-03T08:21:12.427Z,14.64
2022-09-03T08:23:46.007Z,15.06
2022-09-03T08:26:19.131Z,14.59
2022-09-03T08:28:53.707Z,14.78
2022-09-03T08:31:27.950Z,14.66
2022-09-03T08:34:07.016Z,14.89
2022-09-03T08:36:41.312Z,14.91
2022-09-03T08:39:14.578Z,14.44
2022-09-03T08:42:12.013Z,14.58
2022-09-03T08:44:48.090Z,14.95
2022-09-03T08:47:24.759Z,15.44
2022-09-03T08:50:01.246Z,15.37
2022-09-03T08:52:38.525Z,15.40
2022-09-03T08:55:21.801Z,15.16
2022-09-03T08:57:58.463Z,15.06
2022-09-03T09:00:43.359Z,15.22
2022-09-03T09:03:36.204Z,14.49
2022-09-03T09:06:18.662Z,15.57
2022-09-03T09:09:04.577Z,15.81
2022-09-03T09:11:48.036Z,15.41
2022-09-03T09:14:25.920Z,15.92
2022-09-03T09:17:04.245Z,15.99
2022-09-03T09:19:45.436Z,15.12
2022-09-03T09:22:25.593Z,15.40
2022-09-03T09:25:00.415Z,15.34
2022-09-03T09:27:33.696Z,15.04
2022-09-03T09:30:08.434Z,16.07
2022-09-03T09:32:40.453Z,15.38
2022-09-03T09:35:13.334Z,16.56
2022-09-03T09:37:53.622Z,16.92
2022-09-03T09:40:35.830Z,17.16
2022-09-03T09:43:10.985Z,16.25
2022-09-03T09:45:45.584Z,16.08
2022-09-03T09:48:31.504Z,16.74
2022-09-03T09:51:13.073Z,17.30
2022-09-03T09:53:46.138Z,17.92
2022-09-03T09:56:26.614Z,17.73
2022-09-03T09:59:08.411Z,17.88
2022-09-03T10:01:42.615Z,17.94
2022-09-03T10:04:24.502Z,17.73
2022-09-03T10:07:01.614Z,17.41
2022-09-03T10:09:34.831Z,17.45
2022-09-03T10:12:19.798Z,17.39
2022-09-03T10:14:56.862Z,17.67
2022-09-03T10:17:36.906Z,17.73
2022-09-03T10:20:31.069Z,17.37
2022-09-03T10:23:11.191Z,18.26
2022-09-03T10:25:53.801Z,17.85
2022-09-03T10:28:30.412Z,17.66
2022-09-03T10:31:36.865Z,17.34
2022-09-03T10:34:16.941Z,17.35
2022-09-03T10:36:55.861Z,18.00
2022-09-03T10:39:42.998Z,18.37
2022-09-03T10:42:33.558Z,18.90
2022-09-03T10:45:17.220Z,18.69
2022-09-03T10:48:25.864Z,18.17
2022-09-03T10:51:04.290Z,18.47
2022-09-03T10:54:03.830Z,18.15
2022-09-03T10:56:43.176Z,17.99
2022-09-03T10:59:34.747Z,18.31
2022-09-03T11:02:22.913Z,18.27
2022-09-03T11:05:03.099Z,18.77
2022-09-03T11:07:44.222Z,19.28
2022-09-03T11:10:20.869Z,19.33
2022-09-03T11:13:03.306Z,19.49
2022-09-03T11:15:39.740Z,19.13
2022-09-03T11:18:17.187Z,19.35
2022-09-03T11:20:54.000Z,19.38
2022-09-03T11:23:29.415Z,19.20
2022-09-03T11:26:06.889Z,19.62
2022-09-03T11:28:45.217Z,19.52
2022-09-03T11:31:26.748Z,19.53
2022-09-03T11:34:06.380Z,19.36
2022-09-03T11:36:45.900Z,19.87
2022-09-03T11:39:28.071Z,20.62
2022-09-03T11:42:07.210Z,20.82
2022-09-03T11:44:51.429Z,20.24
2022-09-03T11:47:38.478Z,20.02
2022-09-03T11:50:21.257Z,20.97
2022-09-03T11:52:56.988Z,21.09
2022-09-03T11:55:43.277Z,20.41
2022-09-03T11:58:22.644Z,20.08
2022-09-03T12:00:55.217Z,19.97
2022-09-03T12:03:30.779Z,20.56
2022-09-03T12:06:22.442Z,20.73
2022-09-03T12:09:22.281Z,20.43
2022-09-03T12:12:05.567Z,20.76
2022-09-03T12:14:48.279Z,21.12
2022-09-03T12:17:29.449Z,21.25
2022-09-03T12:20:02.185Z,21.02
2022-09-03T12:22:39.688Z,21.38
2022-09-03T12:25:13.969Z,21.72
2022-09-03T12:27:49.439Z,21.82
2022-09-03T12:30:23.577Z,22.06
2022-09-03T12:33:06.913Z,21.63
2022-09-03T12:38:44.500Z,22.29
2022-09-03T12:41:37.948Z,22.22
2022-09-03T12:44:11.693Z,21.66
2022-09-03T12:46:43.733Z,21.78
2022-09-03T12:49:33.683Z,21.87
2022-09-03T12:52:15.612Z,21.69
2022-09-03T12:54:54.587Z,21.78
2022-09-03T12:57:33.021Z,22.09
2022-09-03T13:00:08.485Z,22.10
2022-09-03T13:02:47.977Z,22.39
2022-09-03T13:05:22.824Z,23.09
2022-09-03T13:07:59.489Z,23.64
2022-09-03T13:10:33.194Z,23.24
2022-09-03T13:13:17.231Z,22.85
2022-09-03T13:16:06.414Z,23.29
2022-09-03T13:18:45.560Z,23.49
2022-09-03T13:21:30.743Z,23.34
2022-09-03T13:24:30.131Z,23.66
2022-09-03T13:27:18.239Z,23.55
2022-09-03T13:30:03.887Z,22.78
2022-09-03T13:32:51.193Z,23.08
2022-09-03T13:35:32.515Z,23.22
2022-09-03T13:38:14.726Z,23.46
2022-09-03T13:40:51.718Z,24.09
2022-09-03T13:43:27.515Z,23.46
2022-09-03T13:46:04.471Z,23.99
2022-09-03T13:48:58.430Z,23.42
2022-09-03T13:51:37.758Z,23.85
2022-09-03T13:54:36.566Z,24.15
2022-09-03T13:57:30.678Z,23.63
2022-09-03T14:00:08.189Z,23.56
2022-09-03T14:02:53.135Z,23.73
2022-09-03T14:05:42.633Z,23.88
2022-09-03T14:08:25.676Z,24.11
2022-09-03T14:11:10.657Z,24.15
2022-09-03T14:13:58.749Z,24.25
2022-09-03T14:16:38.684Z,24.51
2022-09-03T14:19:18.472Z,24.42
2022-09-03T14:21:56.513Z,24.21
2022-09-03T14:24:41.105Z,24.81
2022-09-03T14:27:15.041Z,24.83
2022-09-03T14:30:00.596Z,24.74
2022-09-03T14:32:42.421Z,24.48
2022-09-03T14:35:25.217Z,24.66
2022-09-03T14:38:16.092Z,24.61
2022-09-03T14:40:51.745Z,24.49
2022-09-03T14:43:49.705Z,24.51
2022-09-03T14:46:42.523Z,24.40
2022-09-03T14:49:39.875Z,24.44
2022-09-03T14:52:26.576Z,24.74
2022-09-03T14:55:21.748Z,24.69
2022-09-03T14:58:14.578Z,25.04
2022-09-03T15:00:55.861Z,25.41
2022-09-03T15:03:55.009Z,25.12
2022-09-03T15:06:45.005Z,24.92
2022-09-03T15:09:28.800Z,24.93
2022-09-03T15:12:07.537Z,25.13
2022-09-03T15:14:51.031Z,25.58
2022-09-03T15:17:48.568Z,25.55
2022-09-03T15:20:27.965Z,25.74
2022-09-03T15:23:25.095Z,25.59
2022-09-03T15:26:22.701Z,25.59
2022-09-03T15:29:13.529Z,25.74
2022-09-03T15:31:57.959Z,25.82
2022-09-03T15:34:51.233Z,25.54
2022-09-03T15:37:28.581Z,25.55
2022-09-03T15:40:08.303Z,25.69
2022-09-03T15:42:44.513Z,25.66
2022-09-03T15:45:27.393Z,26.05
2022-09-03T15:48:09.390Z,26.25
2022-09-03T15:50:54.524Z,26.12
2022-09-03T15:53:35.266Z,26.26
2022-09-03T15:56:16.155Z,26.11
2022-09-03T15:58:57.160Z,26.13
2022-09-03T16:01:39.196Z,26.36
2022-09-03T16:04:24.847Z,26.43
2022-09-03T16:07:03.413Z,26.51
2022-09-03T16:10:07.623Z,26.70
2022-09-03T16:12:51.727Z,26.78
2022-09-03T16:15:28.364Z,26.88
2022-09-03T16:18:08.083Z,26.73
2022-09-03T16:20:45.110Z,27.15
2022-09-03T16:23:22.859Z,27.07
2022-09-03T16:26:04.043Z,27.03
2022-09-03T16:28:44.475Z,26.86
2022-09-03T16:31:29.845Z,27.15
2022-09-03T16:34:17.957Z,27.06
2022-09-03T16:36:59.288Z,27.27
2022-09-03T16:39:43.097Z,27.36
2022-09-03T16:42:24.960Z,27.54
2022-09-03T16:45:06.740Z,27.54
2022-09-03T16:47:50.186Z,27.51
2022-09-03T16:50:34.628Z,27.63
2022-09-03T16:53:15.307Z,27.58
2022-09-03T16:56:09.509Z,27.94
2022-09-03T16:58:55.174Z,27.96
2022-09-03T17:01:45.879Z,28.19
2022-09-03T17:04:49.635Z,28.43
2022-09-03T17:07:38.034Z,28.49
2022-09-03T17:10:27.443Z,28.79
2022-09-03T17:13:22.857Z,28.93
2022-09-03T17:16:05.684Z,28.94
2022-09-03T17:18:51.259Z,29.19
2022-09-03T17:21:37.133Z,29.17
2022-09-03T17:24:36.180Z,29.42
2022-09-03T17:27:29.553Z,29.69
2022-09-03T17:30:10.504Z,29.62
2022-09-03T17:33:01.829Z,29.74
2022-09-03T17:35:43.047Z,29.82
2022-09-03T17:38:32.399Z,29.67
2022-09-03T17:41:17.116Z,29.98
2022-09-03T17:43:58.678Z,30.24
2022-09-03T17:46:44.043Z,30.31
2022-09-03T17:49:22.745Z,30.50
2022-09-03T17:52:05.381Z,30.63
2022-09-03T17:54:43.850Z,30.71
2022-09-03T17:57:24.722Z,30.87
2022-09-03T18:00:02.352Z,31.07
2022-09-03T18:02:44.707Z,30.95
2022-09-03T18:05:23.781Z,31.09
2022-09-03T18:08:00.557Z,31.08
2022-09-03T18:10:33.873Z,31.18
2022-09-03T18:13:23.750Z,31.28
2022-09-03T18:16:02.309Z,31.21
2022-09-03T18:18:38.230Z,31.25
2022-09-03T18:21:31.890Z,31.38
2022-09-03T18:24:30.070Z,31.52
2022-09-03T18:27:23.592Z,31.51
2022-09-03T18:30:20.144Z,31.65
2022-09-03T18:33:09.505Z,31.67
2022-09-03T18:36:02.037Z,31.80
2022-09-03T18:38:53.528Z,32.02
2022-09-03T18:41:59.574Z,31.97
2022-09-03T18:45:21.025Z,32.20
2022-09-03T18:48:26.452Z,32.21
2022-09-03T18:51:22.457Z,32.53
2022-09-03T18:54:24.612Z,32.73
2022-09-03T18:57:15.032Z,32.94
2022-09-03T19:00:30.538Z,32.77
2022-09-03T19:03:37.642Z,33.04
2022-09-03T19:06:37.485Z,33.03
2022-09-03T19:09:36.103Z,33.28
2022-09-03T19:12:39.286Z,33.23
2022-09-03T19:15:38.828Z,33.46
2022-09-03T19:18:47.435Z,33.40
2022-09-03T19:21:47.432Z,33.49
2022-09-03T19:24:44.764Z,33.72
2022-09-03T19:27:54.288Z,33.71
2022-09-03T19:30:57.035Z,33.76
2022-09-03T19:33:56.839Z,33.91
2022-09-03T19:36:56.476Z,33.89
2022-09-03T19:40:04.108Z,34.04
2022-09-03T19:43:07.313Z,34.15
2022-09-03T19:46:08.740Z,34.29
2022-09-03T19:49:18.748Z,34.37
2022-09-03T19:52:16.816Z,34.55
2022-09-03T19:55:11.930Z,34.63
2022-09-03T19:58:05.967Z,34.77
2022-09-03T20:01:03.376Z,34.82
2022-09-03T20:03:53.498Z,35.05
2022-09-03T20:06:43.036Z,35.05
2022-09-03T20:09:37.222Z,35.09
2022-09-03T20:12:10.935Z,35.16
2022-09-03T20:14:42.903Z,35.17
2022-09-03T20:17:25.100Z,35.28
2022-09-03T20:20:10.870Z,35.42
2022-09-03T20:22:52.663Z,35.39
2022-09-03T20:25:44.911Z,35.51
2022-09-03T20:28:28.925Z,35.59
2022-09-03T20:31:11.182Z,35.60
2022-09-03T20:33:54.695Z,35.51
2022-09-03T20:36:35.639Z,35.68
2022-09-03T20:39:22.983Z,35.62
2022-09-03T20:41:57.862Z,35.55
2022-09-03T20:44:52.359Z,35.54
2022-09-03T20:47:48.671Z,35.68
2022-09-03T20:50:33.909Z,35.64
2022-09-03T20:53:19.309Z,35.64
2022-09-03T20:55:55.340Z,35.69
2022-09-03T20:58:37.493Z,35.70
2022-09-03T21:01:13.863Z,35.80
2022-09-03T21:03:54.202Z,35.83
2022-09-03T21:06:34.771Z,35.93
2022-09-03T21:09:27.483Z,36.03
2022-09-03T21:12:07.079Z,35.99
2022-09-03T21:14:44.743Z,36.05
2022-09-03T21:17:32.114Z,36.08
2022-09-03T21:20:18.674Z,36.25
2022-09-03T21:23:13.483Z,36.32
2022-09-03T21:25:52.897Z,36.49
2022-09-03T21:28:30.695Z,36.62
2022-09-03T21:31:08.923Z,36.66
2022-09-03T21:33:45.791Z,37.04
2022-09-03T21:36:22.239Z,36.96
2022-09-03T21:39:01.149Z,37.10
2022-09-03T21:41:38.367Z,37.14
2022-09-03T21:44:18.894Z,37.23
2022-09-03T21:46:55.910Z,37.21
2022-09-03T21:49:33.865Z,37.33
2022-09-03T21:52:12.349Z,37.46
2022-09-03T21:54:44.963Z,37.68
2022-09-03T21:57:24.286Z,37.68
2022-09-03T22:00:20.660Z,37.81
2022-09-03T22:02:56.902Z,37.91
2022-09-03T22:05:34.210Z,38.18
2022-09-03T22:08:17.473Z,38.21
2022-09-03T22:11:05.133Z,38.37
2022-09-03T22:13:45.877Z,38.60
2022-09-03T22:16:23.410Z,38.70
2022-09-03T22:18:56.688Z,38.80
2022-09-03T22:21:34.042Z,38.94
2022-09-03T22:24:23.380Z,39.14
2022-09-03T22:27:00.811Z,39.38
2022-09-03T22:29:42.163Z,39.90
2022-09-03T22:32:25.420Z,40.04
2022-09-03T22:35:23.950Z,40.06
2022-09-03T22:38:10.406Z,40.02
2022-09-03T22:40:49.117Z,40.08
2022-09-03T22:43:39.203Z,40.22
2022-09-03T22:46:14.007Z,40.33
2022-09-03T22:49:10.873Z,40.71
2022-09-03T22:52:02.650Z,41.34
2022-09-03T22:54:54.081Z,41.89
2022-09-03T22:57:29.190Z,42.30
2022-09-03T23:00:06.539Z,42.40
2022-09-03T23:02:41.287Z,42.48
2022-09-03T23:05:26.463Z,42.46
2022-09-03T23:08:06.317Z,43.05
2022-09-03T23:10:53.732Z,43.51
2022-09-03T23:13:30.153Z,43.92
2022-09-03T23:16:09.256Z,44.25
2022-09-03T23:18:45.569Z,44.56
2022-09-03T23:21:25.730Z,44.71
2022-09-03T23:24:03.809Z,45.08
2022-09-03T23:26:42.670Z,45.15
2022-09-03T23:29:20.597Z,45.33
2022-09-03T23:31:53.154Z,45.36
2022-09-03T23:34:25.771Z,45.51
2022-09-03T23:37:33.044Z,45.60
2022-09-03T23:40:28.689Z,45.83
2022-09-03T23:43:16.112Z,46.09
2022-09-03T23:45:49.928Z,46.29
2022-09-03T23:48:31.248Z,46.61
2022-09-03T23:51:15.537Z,46.55
2022-09-03T23:54:01.065Z,46.74
2022-09-03T23:57:02.147Z,46.96
2022-09-03T23:59:52.576Z,46.88
